sensor_id;sensor_type;location;lat;lon;timestamp;P1;durP1;ratioP1;P2;durP2;ratioP2
75516;SDS011;64097;52.548;13.406;2022-11-03T06:05:10;5.93;;;3.45;;
75516;SDS011;64097;52.548;13.406;2022-11-03T06:07:47;3.78;;;2.53;;
75516;SDS011;64097;52.548;13.406;2022-11-03T06:10:23;6.63;;;3.15;;
75516;SDS011;64097;52.548;13.406;2022-11-03T06:12:49;6.43;;;2.70;;
75516;SDS011;64097;52.548;13.406;2022-11-03T06:15:23;5.60;;;2.70;;
75516;SDS011;64097;52.548;13.406;2022-11-03T06:17:59;6.20;;;2.58;;
75516;SDS011;64097;52.548;13.406;2022-11-03T06:20:35;6.00;;;3.03;;
75516;SDS011;64097;52.548;13.406;2022-11-03T06:23:00;5.28;;;3.00;;
75516;SDS011;64097;52.548;13.406;2022-11-03T06:25:34;5.22;;;2.92;;
75516;SDS011;64097;52.548;13.406;2022-11-03T06:28:02;7.40;;;3.13;;
75516;SDS011;64097;52.548;13.406;2022-11-03T06:30:31;6.65;;;3.45;;
75516;SDS011;64097;52.548;13.406;2022-11-03T06:32:59;6.32;;;2.58;;
75516;SDS011;64097;52.548;13.406;2022-11-03T06:35:30;5.75;;;2.78;;
75516;SDS011;64097;52.548;13.406;2022-11-03T06:37:56;6.18;;;2.90;;
75516;SDS011;64097;52.548;13.406;2022-11-03T06:40:32;6.53;;;3.20;;
75516;SDS011;64097;52.548;13.406;2022-11-03T06:43:04;6.82;;;3.03;;
75516;SDS011;64097;52.548;13.406;2022-11-03T06:45:38;4.32;;;2.65;;
75516;SDS011;64097;52.548;13.406;2022-11-03T06:48:13;3.53;;;2.67;;
75516;SDS011;64097;52.548;13.406;2022-11-03T06:50:44;7.00;;;3.35;;
75516;SDS011;64097;52.548;13.406;2022-11-03T06:53:09;5.65;;;2.63;;
75516;SDS011;64097;52.548;13.406;2022-11-03T06:55:36;7.65;;;3.10;;
75516;SDS011;64097;52.548;13.406;2022-11-03T06:58:13;6.10;;;3.28;;
75516;SDS011;64097;52.548;13.406;2022-11-03T07:00:43;6.85;;;3.45;;
75516;SDS011;64097;52.548;13.406;2022-11-03T07:05:49;8.20;;;3.60;;
75516;SDS011;64097;52.548;13.406;2022-11-03T07:11:01;7.30;;;3.90;;
75516;SDS011;64097;52.548;13.406;2022-11-03T07:13:31;5.72;;;3.17;;
75516;SDS011;64097;52.548;13.406;2022-11-03T07:15:58;7.88;;;3.00;;
75516;SDS011;64097;52.548;13.406;2022-11-03T07:18:25;7.68;;;3.20;;
75516;SDS011;64097;52.548;13.406;2022-11-03T07:23:28;10.38;;;3.58;;
75516;SDS011;64097;52.548;13.406;2022-11-03T07:25:58;7.00;;;3.22;;
75516;SDS011;64097;52.548;13.406;2022-11-03T07:28:28;6.38;;;2.88;;
75516;SDS011;64097;52.548;13.406;2022-11-03T07:31:00;5.43;;;2.80;;
75516;SDS011;64097;52.548;13.406;2022-11-03T07:33:37;5.53;;;2.63;;
75516;SDS011;64097;52.548;13.406;2022-11-03T07:36:03;5.10;;;2.88;;
75516;SDS011;64097;52.548;13.406;2022-11-03T07:38:33;5.97;;;2.55;;
75516;SDS011;64097;52.548;13.406;2022-11-03T07:40:58;6.22;;;2.72;;
75516;SDS011;64097;52.548;13.406;2022-11-03T07:43:29;7.28;;;2.85;;
75516;SDS011;64097;52.548;13.406;2022-11-03T07:46:01;5.20;;;2.83;;
75516;SDS011;64097;52.548;13.406;2022-11-03T07:48:31;5.65;;;3.08;;
75516;SDS011;64097;52.548;13.406;2022-11-03T07:53:50;5.43;;;2.83;;
75516;SDS011;64097;52.548;13.406;2022-11-03T07:56:24;7.43;;;3.20;;
75516;SDS011;64097;52.548;13.406;2022-11-03T07:59:01;8.60;;;3.20;;
75516;SDS011;64097;52.548;13.406;2022-11-03T08:04:07;6.40;;;3.13;;
75516;SDS011;64097;52.548;13.406;2022-11-03T08:06:37;6.25;;;3.30;;
75516;SDS011;64097;52.548;13.406;2022-11-03T08:09:03;5.47;;;3.42;;
75516;SDS011;64097;52.548;13.406;2022-11-03T08:11:29;10.35;;;4.03;;
75516;SDS011;64097;52.548;13.406;2022-11-03T08:13:55;11.95;;;5.78;;
75516;SDS011;64097;52.548;13.406;2022-11-03T08:16:21;10.05;;;5.03;;
75516;SDS011;64097;52.548;13.406;2022-11-03T08:18:47;7.18;;;4.70;;
75516;SDS011;64097;52.548;13.406;2022-11-03T08:21:12;7.80;;;4.40;;
75516;SDS011;64097;52.548;13.406;2022-11-03T08:23:38;8.73;;;3.72;;
75516;SDS011;64097;52.548;13.406;2022-11-03T08:26:04;7.78;;;3.25;;
75516;SDS011;64097;52.548;13.406;2022-11-03T08:28:31;6.28;;;3.25;;
75516;SDS011;64097;52.548;13.406;2022-11-03T08:30:57;6.05;;;3.13;;
75516;SDS011;64097;52.548;13.406;2022-11-03T08:33:28;7.88;;;3.38;;
75516;SDS011;64097;52.548;13.406;2022-11-03T08:35:54;7.30;;;3.38;;
75516;SDS011;64097;52.548;13.406;2022-11-03T08:38:20;6.40;;;3.30;;
75516;SDS011;64097;52.548;13.406;2022-11-03T08:40:46;7.13;;;4.00;;
75516;SDS011;64097;52.548;13.406;2022-11-03T08:43:11;7.72;;;3.80;;
75516;SDS011;64097;52.548;13.406;2022-11-03T08:45:37;10.80;;;3.45;;
75516;SDS011;64097;52.548;13.406;2022-11-03T08:48:03;6.85;;;3.40;;
75516;SDS011;64097;52.548;13.406;2022-11-03T08:50:29;7.00;;;3.20;;
75516;SDS011;64097;52.548;13.406;2022-11-03T08:52:54;7.55;;;3.22;;
75516;SDS011;64097;52.548;13.406;2022-11-03T08:55:20;7.07;;;3.28;;
75516;SDS011;64097;52.548;13.406;2022-11-03T08:57:46;5.82;;;3.00;;
75516;SDS011;64097;52.548;13.406;2022-11-03T09:00:12;4.88;;;2.80;;
75516;SDS011;64097;52.548;13.406;2022-11-03T09:02:38;7.63;;;3.38;;
75516;SDS011;64097;52.548;13.406;2022-11-03T09:05:04;8.00;;;3.25;;
75516;SDS011;64097;52.548;13.406;2022-11-03T09:07:31;7.45;;;3.20;;
75516;SDS011;64097;52.548;13.406;2022-11-03T09:09:57;7.25;;;3.05;;
75516;SDS011;64097;52.548;13.406;2022-11-03T09:12:23;6.38;;;3.08;;
75516;SDS011;64097;52.548;13.406;2022-11-03T09:14:49;4.78;;;2.53;;
75516;SDS011;64097;52.548;13.406;2022-11-03T09:17:14;6.10;;;2.47;;
75516;SDS011;64097;52.548;13.406;2022-11-03T09:19:40;7.38;;;2.70;;
75516;SDS011;64097;52.548;13.406;2022-11-03T09:22:06;6.97;;;2.45;;
75516;SDS011;64097;52.548;13.406;2022-11-03T09:24:31;8.07;;;2.53;;
75516;SDS011;64097;52.548;13.406;2022-11-03T09:26:57;5.55;;;2.50;;
75516;SDS011;64097;52.548;13.406;2022-11-03T09:29:23;6.30;;;2.92;;
75516;SDS011;64097;52.548;13.406;2022-11-03T09:31:49;4.97;;;2.40;;
75516;SDS011;64097;52.548;13.406;2022-11-03T09:34:14;6.15;;;2.70;;
75516;SDS011;64097;52.548;13.406;2022-11-03T09:36:40;7.35;;;2.60;;
75516;SDS011;64097;52.548;13.406;2022-11-03T09:39:06;6.38;;;2.75;;
75516;SDS011;64097;52.548;13.406;2022-11-03T09:41:32;6.95;;;2.58;;
75516;SDS011;64097;52.548;13.406;2022-11-03T09:43:59;10.00;;;2.55;;
75516;SDS011;64097;52.548;13.406;2022-11-03T09:46:25;7.15;;;2.58;;
75516;SDS011;64097;52.548;13.406;2022-11-03T09:48:53;15.05;;;3.15;;
75516;SDS011;64097;52.548;13.406;2022-11-03T09:51:20;7.10;;;3.20;;
75516;SDS011;64097;52.548;13.406;2022-11-03T09:53:47;6.32;;;3.83;;
75516;SDS011;64097;52.548;13.406;2022-11-03T09:56:17;8.80;;;4.65;;
75516;SDS011;64097;52.548;13.406;2022-11-03T09:58:46;5.47;;;3.35;;
75516;SDS011;64097;52.548;13.406;2022-11-03T10:01:11;5.88;;;2.90;;
75516;SDS011;64097;52.548;13.406;2022-11-03T10:03:37;6.30;;;2.78;;
75516;SDS011;64097;52.548;13.406;2022-11-03T10:06:05;6.68;;;3.03;;
75516;SDS011;64097;52.548;13.406;2022-11-03T10:08:32;6.30;;;2.55;;
75516;SDS011;64097;52.548;13.406;2022-11-03T10:11:00;5.07;;;2.70;;
75516;SDS011;64097;52.548;13.406;2022-11-03T10:13:36;6.70;;;3.00;;
75516;SDS011;64097;52.548;13.406;2022-11-03T10:16:05;6.82;;;3.35;;
75516;SDS011;64097;52.548;13.406;2022-11-03T10:18:33;7.47;;;3.70;;
75516;SDS011;64097;52.548;13.406;2022-11-03T10:21:11;6.38;;;2.63;;
75516;SDS011;64097;52.548;13.406;2022-11-03T10:23:48;6.82;;;3.00;;
75516;SDS011;64097;52.548;13.406;2022-11-03T10:26:15;5.85;;;3.00;;
75516;SDS011;64097;52.548;13.406;2022-11-03T10:31:36;8.68;;;4.63;;
75516;SDS011;64097;52.548;13.406;2022-11-03T10:34:04;7.03;;;2.72;;
75516;SDS011;64097;52.548;13.406;2022-11-03T10:36:47;3.72;;;1.95;;
75516;SDS011;64097;52.548;13.406;2022-11-03T10:39:23;4.38;;;2.17;;
75516;SDS011;64097;52.548;13.406;2022-11-03T10:41:58;4.78;;;2.20;;
75516;SDS011;64097;52.548;13.406;2022-11-03T10:44:27;4.50;;;2.28;;
75516;SDS011;64097;52.548;13.406;2022-11-03T10:46:54;4.93;;;2.30;;
75516;SDS011;64097;52.548;13.406;2022-11-03T10:49:20;5.85;;;2.47;;
75516;SDS011;64097;52.548;13.406;2022-11-03T10:51:47;4.88;;;1.65;;
75516;SDS011;64097;52.548;13.406;2022-11-03T10:54:17;8.70;;;2.65;;
75516;SDS011;64097;52.548;13.406;2022-11-03T10:56:45;6.68;;;2.40;;
75516;SDS011;64097;52.548;13.406;2022-11-03T10:59:16;5.82;;;2.38;;
75516;SDS011;64097;52.548;13.406;2022-11-03T11:01:46;5.00;;;2.10;;
75516;SDS011;64097;52.548;13.406;2022-11-03T11:04:15;4.32;;;2.28;;
75516;SDS011;64097;52.548;13.406;2022-11-03T11:06:43;4.32;;;1.75;;
75516;SDS011;64097;52.548;13.406;2022-11-03T11:09:11;5.72;;;2.08;;
75516;SDS011;64097;52.548;13.406;2022-11-03T11:11:38;7.05;;;2.50;;
75516;SDS011;64097;52.548;13.406;2022-11-03T11:14:33;5.10;;;1.95;;
75516;SDS011;64097;52.548;13.406;2022-11-03T11:17:01;3.08;;;1.55;;
75516;SDS011;64097;52.548;13.406;2022-11-03T11:19:27;4.40;;;2.05;;
75516;SDS011;64097;52.548;13.406;2022-11-03T11:37:42;6.18;;;2.53;;
75516;SDS011;64097;52.548;13.406;2022-11-03T11:40:53;5.85;;;2.35;;
75516;SDS011;64097;52.548;13.406;2022-11-03T11:48:38;6.97;;;2.60;;
75516;SDS011;64097;52.548;13.406;2022-11-03T11:51:07;6.05;;;2.40;;
75516;SDS011;64097;52.548;13.406;2022-11-03T11:53:38;5.45;;;2.30;;
75516;SDS011;64097;52.548;13.406;2022-11-03T11:56:10;4.93;;;2.50;;
75516;SDS011;64097;52.548;13.406;2022-11-03T11:58:41;5.97;;;2.40;;
75516;SDS011;64097;52.548;13.406;2022-11-03T12:01:22;5.90;;;2.15;;
75516;SDS011;64097;52.548;13.406;2022-11-03T12:03:53;7.60;;;2.42;;
75516;SDS011;64097;52.548;13.406;2022-11-03T12:06:39;5.97;;;2.28;;
75516;SDS011;64097;52.548;13.406;2022-11-03T12:09:07;5.88;;;2.20;;
75516;SDS011;64097;52.548;13.406;2022-11-03T12:11:44;8.20;;;2.50;;
75516;SDS011;64097;52.548;13.406;2022-11-03T12:16:53;4.88;;;1.98;;
75516;SDS011;64097;52.548;13.406;2022-11-03T12:19:36;4.90;;;2.25;;
75516;SDS011;64097;52.548;13.406;2022-11-03T12:29:52;5.00;;;1.83;;
75516;SDS011;64097;52.548;13.406;2022-11-03T12:32:23;5.90;;;2.00;;
75516;SDS011;64097;52.548;13.406;2022-11-03T12:34:49;4.57;;;2.03;;
75516;SDS011;64097;52.548;13.406;2022-11-03T12:37:15;3.95;;;1.92;;
75516;SDS011;64097;52.548;13.406;2022-11-03T12:39:41;4.45;;;2.00;;
75516;SDS011;64097;52.548;13.406;2022-11-03T12:42:06;3.75;;;1.83;;
75516;SDS011;64097;52.548;13.406;2022-11-03T12:44:33;5.47;;;2.03;;
75516;SDS011;64097;52.548;13.406;2022-11-03T12:46:59;4.68;;;2.17;;
75516;SDS011;64097;52.548;13.406;2022-11-03T12:49:25;4.80;;;1.80;;
75516;SDS011;64097;52.548;13.406;2022-11-03T12:51:51;5.63;;;2.08;;
75516;SDS011;64097;52.548;13.406;2022-11-03T12:54:17;6.28;;;2.00;;
75516;SDS011;64097;52.548;13.406;2022-11-03T12:56:43;4.60;;;2.30;;
75516;SDS011;64097;52.548;13.406;2022-11-03T12:59:08;4.68;;;2.00;;
75516;SDS011;64097;52.548;13.406;2022-11-03T13:01:34;6.65;;;2.10;;
75516;SDS011;64097;52.548;13.406;2022-11-03T13:04:00;5.05;;;2.40;;
75516;SDS011;64097;52.548;13.406;2022-11-03T13:06:29;4.97;;;2.17;;
75516;SDS011;64097;52.548;13.406;2022-11-03T13:08:54;5.65;;;2.17;;
75516;SDS011;64097;52.548;13.406;2022-11-03T13:11:20;5.95;;;2.13;;
75516;SDS011;64097;52.548;13.406;2022-11-03T13:14:04;5.45;;;2.28;;
75516;SDS011;64097;52.548;13.406;2022-11-03T13:16:30;5.88;;;2.45;;
75516;SDS011;64097;52.548;13.406;2022-11-03T13:18:56;6.13;;;2.25;;
75516;SDS011;64097;52.548;13.406;2022-11-03T13:21:22;4.75;;;2.00;;
75516;SDS011;64097;52.548;13.406;2022-11-03T13:23:47;4.85;;;2.20;;
75516;SDS011;64097;52.548;13.406;2022-11-03T13:26:13;4.90;;;2.30;;
75516;SDS011;64097;52.548;13.406;2022-11-03T13:28:39;6.10;;;2.28;;
75516;SDS011;64097;52.548;13.406;2022-11-03T13:31:04;4.93;;;2.38;;
75516;SDS011;64097;52.548;13.406;2022-11-03T13:33:30;4.68;;;2.42;;
75516;SDS011;64097;52.548;13.406;2022-11-03T13:35:56;4.00;;;2.15;;
75516;SDS011;64097;52.548;13.406;2022-11-03T13:38:22;3.95;;;2.05;;
75516;SDS011;64097;52.548;13.406;2022-11-03T13:40:48;5.78;;;1.90;;
75516;SDS011;64097;52.548;13.406;2022-11-03T13:43:14;5.80;;;1.98;;
75516;SDS011;64097;52.548;13.406;2022-11-03T13:45:39;4.28;;;2.00;;
75516;SDS011;64097;52.548;13.406;2022-11-03T13:48:05;6.63;;;2.30;;
75516;SDS011;64097;52.548;13.406;2022-11-03T13:50:31;7.40;;;2.65;;
75516;SDS011;64097;52.548;13.406;2022-11-03T13:52:56;4.45;;;2.20;;
75516;SDS011;64097;52.548;13.406;2022-11-03T13:55:22;6.07;;;2.20;;
75516;SDS011;64097;52.548;13.406;2022-11-03T13:57:48;5.13;;;2.20;;
